Time;durP1;ratioP1;P1;durP2;ratioP2;P2;SDS_P1;SDS_P2;PMS_P1;PMS_P2;Temp;Humidity;BMP_temperature;BMP_pressure;BME280_temperature;BME280_humidity;BME280_pressure;Samples;Min_cycle;Max_cycle;Signal;HPM_P1;HPM_P2
2023/12/06 00:00:27;;;;;;;97.40;60.60;;;;;;;;;;5588735;31;34366;-75
2023/12/06 00:03:29;;;;;;;97.10;61.13;;;;;;;;;;5589461;31;34916;-75
2023/12/06 00:06:32;;;;;;;101.45;61.05;;;;;;;;;;5589435;31;35009;-75
2023/12/06 00:09:35;;;;;;;95.55;60.22;;;;;;;;;;5589641;31;34342;-75
2023/12/06 00:12:38;;;;;;;97.45;60.97;;;;;;;;;;5589167;31;34544;-75
2023/12/06 00:15:40;;;;;;;101.40;61.08;;;;;;;;;;5588682;31;34942;-75
2023/12/06 00:18:45;;;;;;;100.30;60.75;;;;;;;;;;5588972;31;34551;-74
2023/12/06 00:21:49;;;;;;;97.80;60.70;;;;;;;;;;5589103;31;35010;-74
2023/12/06 00:24:53;;;;;;;98.97;60.30;;;;;;;;;;5589145;31;35187;-74
2023/12/06 00:27:56;;;;;;;101.03;60.88;;;;;;;;;;5589179;31;34259;-74
2023/12/06 00:30:59;;;;;;;97.97;60.47;;;;;;;;;;5589180;31;34229;-74
2023/12/06 00:34:02;;;;;;;99.32;61.80;;;;;;;;;;5588987;31;35148;-75
2023/12/06 00:37:04;;;;;;;92.82;59.83;;;;;;;;;;5588938;31;35105;-74
2023/12/06 00:40:07;;;;;;;94.37;60.60;;;;;;;;;;5589054;31;34495;-74
2023/12/06 00:43:10;;;;;;;110.03;63.20;;;;;;;;;;5589081;31;34344;-74
2023/12/06 00:46:13;;;;;;;99.00;59.25;;;;;;;;;;5588959;31;34176;-73
2023/12/06 00:49:18;;;;;;;87.22;57.42;;;;;;;;;;5588668;31;35255;-73
2023/12/06 00:52:21;;;;;;;90.20;57.80;;;;;;;;;;5588843;31;34561;-74
2023/12/06 00:55:24;;;;;;;87.95;57.75;;;;;;;;;;5589285;31;34993;-73
2023/12/06 00:58:26;;;;;;;90.47;57.50;;;;;;;;;;5588817;31;34405;-74
2023/12/06 01:01:29;;;;;;;90.95;57.25;;;;;;;;;;5589020;31;34313;-73
2023/12/06 01:04:36;;;;;;;86.70;55.72;;;;;;;;;;5588934;31;34251;-72
2023/12/06 01:07:38;;;;;;;86.22;55.35;;;;;;;;;;5588820;31;35114;-73
2023/12/06 01:10:42;;;;;;;88.25;55.75;;;;;;;;;;5588824;31;34433;-72
2023/12/06 01:13:46;;;;;;;89.15;56.28;;;;;;;;;;5589124;31;34997;-72
2023/12/06 01:16:49;;;;;;;86.40;54.60;;;;;;;;;;5588247;31;34448;-72
2023/12/06 01:19:51;;;;;;;92.35;57.03;;;;;;;;;;5588558;31;34660;-72
2023/12/06 01:22:54;;;;;;;82.50;54.15;;;;;;;;;;5588647;31;34302;-72
2023/12/06 01:25:57;;;;;;;87.00;56.50;;;;;;;;;;5588088;31;35117;-71
2023/12/06 01:29:03;;;;;;;94.65;58.35;;;;;;;;;;5588682;31;35165;-71
2023/12/06 01:32:05;;;;;;;90.00;55.55;;;;;;;;;;5588608;31;34332;-71
2023/12/06 01:35:08;;;;;;;84.45;54.95;;;;;;;;;;5588690;31;34472;-71
2023/12/06 01:38:11;;;;;;;88.95;56.20;;;;;;;;;;5588467;31;34463;-70
2023/12/06 01:41:14;;;;;;;89.60;54.33;;;;;;;;;;5588650;31;35180;-70
2023/12/06 01:44:17;;;;;;;83.80;53.08;;;;;;;;;;5588574;31;34915;-70
2023/12/06 01:47:20;;;;;;;83.93;53.87;;;;;;;;;;5588495;31;34294;-70
2023/12/06 01:50:24;;;;;;;88.82;56.17;;;;;;;;;;5588392;31;34599;-70
2023/12/06 01:53:27;;;;;;;87.00;54.85;;;;;;;;;;5588470;31;35098;-69
2023/12/06 01:56:30;;;;;;;85.32;53.70;;;;;;;;;;5587753;31;34319;-69
2023/12/06 01:59:32;;;;;;;83.12;51.78;;;;;;;;;;5587543;31;34317;-68
2023/12/06 02:02:35;;;;;;;84.78;53.05;;;;;;;;;;5588663;31;34445;-68
2023/12/06 02:05:38;;;;;;;76.80;51.05;;;;;;;;;;5588362;31;35150;-68
2023/12/06 02:08:42;;;;;;;80.82;52.72;;;;;;;;;;5588306;31;34210;-68
2023/12/06 02:11:45;;;;;;;91.00;54.63;;;;;;;;;;5588305;31;35134;-69
2023/12/06 02:14:48;;;;;;;87.97;54.47;;;;;;;;;;5588111;31;34630;-69
2023/12/06 02:17:51;;;;;;;82.68;52.45;;;;;;;;;;5588137;31;34364;-68
2023/12/06 02:20:54;;;;;;;83.32;53.15;;;;;;;;;;5588040;31;34429;-67
2023/12/06 02:23:58;;;;;;;82.68;52.88;;;;;;;;;;5588104;31;35127;-67
2023/12/06 02:27:01;;;;;;;87.25;53.95;;;;;;;;;;5587978;31;34482;-68
2023/12/06 02:30:04;;;;;;;86.25;54.00;;;;;;;;;;5587983;31;35040;-67
2023/12/06 02:33:06;;;;;;;96.22;56.40;;;;;;;;;;5588263;31;34430;-67
2023/12/06 02:36:10;;;;;;;89.78;54.58;;;;;;;;;;5586558;31;34387;-67
2023/12/06 02:39:12;;;;;;;91.00;55.00;;;;;;;;;;5587690;31;34315;-67
2023/12/06 02:42:15;;;;;;;90.62;53.80;;;;;;;;;;5587703;31;34381;-67
2023/12/06 02:45:17;;;;;;;85.20;51.53;;;;;;;;;;5587693;31;34300;-68
2023/12/06 02:48:20;;;;;;;86.87;52.97;;;;;;;;;;5587725;31;35029;-68
2023/12/06 02:51:23;;;;;;;84.62;52.13;;;;;;;;;;5586778;31;34730;-67
2023/12/06 02:54:27;;;;;;;88.32;53.42;;;;;;;;;;5587944;31;35114;-68
2023/12/06 02:57:31;;;;;;;84.07;52.28;;;;;;;;;;5587866;31;34185;-68
2023/12/06 03:00:33;;;;;;;91.35;55.60;;;;;;;;;;5587417;31;35094;-68
2023/12/06 03:03:38;;;;;;;90.28;54.03;;;;;;;;;;5587543;31;34262;-68
2023/12/06 03:06:41;;;;;;;81.57;49.10;;;;;;;;;;5587364;31;35117;-67
2023/12/06 03:09:43;;;;;;;80.78;48.83;;;;;;;;;;5587272;31;34195;-68
2023/12/06 03:12:46;;;;;;;80.10;49.42;;;;;;;;;;5587552;31;34430;-67
2023/12/06 03:15:49;;;;;;;79.95;49.33;;;;;;;;;;5587035;31;35058;-67
2023/12/06 03:18:53;;;;;;;75.93;47.95;;;;;;;;;;5587065;31;34419;-68
2023/12/06 03:21:56;;;;;;;74.00;47.50;;;;;;;;;;5587414;31;35276;-67
2023/12/06 03:24:59;;;;;;;86.50;50.20;;;;;;;;;;5587170;31;34355;-67
2023/12/06 03:28:01;;;;;;;86.60;51.08;;;;;;;;;;5587069;31;35092;-67
2023/12/06 03:31:04;;;;;;;84.87;52.08;;;;;;;;;;5586175;31;34493;-67
2023/12/06 03:34:06;;;;;;;83.72;50.72;;;;;;;;;;5587323;31;34945;-68
2023/12/06 03:37:09;;;;;;;93.90;56.05;;;;;;;;;;5586870;31;34212;-68
2023/12/06 03:40:12;;;;;;;81.32;48.00;;;;;;;;;;5586893;31;35188;-68
2023/12/06 03:43:15;;;;;;;88.30;51.30;;;;;;;;;;5586993;31;34399;-68
2023/12/06 03:46:18;;;;;;;83.07;50.33;;;;;;;;;;5586219;31;34195;-68
2023/12/06 03:49:21;;;;;;;85.32;48.83;;;;;;;;;;5588777;31;34465;-68
2023/12/06 03:52:23;;;;;;;84.45;49.13;;;;;;;;;;5589682;31;34627;-67
2023/12/06 03:55:26;;;;;;;80.43;47.35;;;;;;;;;;5588737;31;34646;-67
2023/12/06 03:58:28;;;;;;;82.40;49.30;;;;;;;;;;5589440;31;34342;-67
2023/12/06 04:01:31;;;;;;;82.00;50.35;;;;;;;;;;5589508;31;34602;-67
2023/12/06 04:04:34;;;;;;;82.93;48.70;;;;;;;;;;5589401;31;35077;-67
2023/12/06 04:07:37;;;;;;;89.15;51.75;;;;;;;;;;5589322;31;34390;-67
2023/12/06 04:10:40;;;;;;;83.30;48.28;;;;;;;;;;5588959;31;34558;-67
2023/12/06 04:13:42;;;;;;;82.72;48.92;;;;;;;;;;5589212;31;35130;-67
2023/12/06 04:16:46;;;;;;;88.15;50.30;;;;;;;;;;5589267;31;35131;-67
2023/12/06 04:19:48;;;;;;;74.72;46.42;;;;;;;;;;5589198;31;34317;-67
2023/12/06 04:22:51;;;;;;;74.93;45.75;;;;;;;;;;5589440;31;34471;-67
2023/12/06 04:25:53;;;;;;;81.80;49.38;;;;;;;;;;5589172;31;34991;-68
2023/12/06 04:28:56;;;;;;;83.60;50.92;;;;;;;;;;5588659;31;34539;-67
2023/12/06 04:31:59;;;;;;;87.82;49.50;;;;;;;;;;5589128;31;34409;-67
2023/12/06 04:35:01;;;;;;;82.78;48.75;;;;;;;;;;5588989;31;35154;-67
2023/12/06 04:38:04;;;;;;;85.93;49.03;;;;;;;;;;5588940;31;35119;-67
2023/12/06 04:41:07;;;;;;;95.47;52.03;;;;;;;;;;5589617;31;34961;-67
2023/12/06 04:44:09;;;;;;;80.45;48.87;;;;;;;;;;5589225;31;33574;-67
2023/12/06 04:47:15;;;;;;;75.25;45.85;;;;;;;;;;5589304;31;35050;-67
2023/12/06 04:50:17;;;;;;;77.93;46.13;;;;;;;;;;5588948;31;34454;-67
2023/12/06 04:53:20;;;;;;;81.15;47.90;;;;;;;;;;5589163;31;34495;-67
2023/12/06 04:56:22;;;;;;;78.87;46.53;;;;;;;;;;5588948;31;35011;-69
2023/12/06 04:59:25;;;;;;;80.62;47.65;;;;;;;;;;5588138;31;34270;-68
2023/12/06 05:02:27;;;;;;;77.93;46.65;;;;;;;;;;5588951;31;34657;-68
2023/12/06 05:05:30;;;;;;;73.78;46.33;;;;;;;;;;5589164;31;35033;-68
2023/12/06 05:08:33;;;;;;;78.45;48.35;;;;;;;;;;5589189;31;34262;-68
2023/12/06 05:11:36;;;;;;;73.65;46.03;;;;;;;;;;5588741;31;35085;-68
2023/12/06 05:14:38;;;;;;;76.95;47.55;;;;;;;;;;5588782;31;34168;-69
2023/12/06 05:17:41;;;;;;;76.32;46.22;;;;;;;;;;5588929;31;35092;-68
2023/12/06 05:20:43;;;;;;;78.40;46.28;;;;;;;;;;5588764;31;34616;-68
2023/12/06 05:23:46;;;;;;;77.28;47.72;;;;;;;;;;5588473;31;35265;-69
2023/12/06 05:26:49;;;;;;;78.18;47.72;;;;;;;;;;5588674;31;35016;-68
2023/12/06 05:29:51;;;;;;;81.87;48.55;;;;;;;;;;5588795;31;34422;-68
2023/12/06 05:32:57;;;;;;;80.32;48.65;;;;;;;;;;5587994;31;35017;-69
2023/12/06 05:36:00;;;;;;;85.12;50.08;;;;;;;;;;5588741;31;34582;-69
2023/12/06 05:39:05;;;;;;;87.75;50.65;;;;;;;;;;5588430;31;35041;-69
2023/12/06 05:42:08;;;;;;;83.43;52.00;;;;;;;;;;5588664;31;35099;-70
2023/12/06 05:45:10;;;;;;;86.03;50.03;;;;;;;;;;5588381;31;34275;-70
2023/12/06 05:48:13;;;;;;;83.20;48.45;;;;;;;;;;5588683;31;35065;-70
2023/12/06 05:51:15;;;;;;;71.50;44.95;;;;;;;;;;5588264;31;34604;-70
2023/12/06 05:54:18;;;;;;;71.60;45.22;;;;;;;;;;5588307;31;34733;-70
2023/12/06 05:57:21;;;;;;;70.93;45.08;;;;;;;;;;5588349;31;34397;-70
2023/12/06 06:00:24;;;;;;;66.05;44.30;;;;;;;;;;5588305;31;34450;-70
2023/12/06 06:03:27;;;;;;;67.18;43.22;;;;;;;;;;5588178;31;34555;-71
2023/12/06 06:06:36;;;;;;;68.12;43.87;;;;;;;;;;5588438;31;34408;-70
2023/12/06 06:09:39;;;;;;;64.82;42.88;;;;;;;;;;5587482;31;34386;-70
2023/12/06 06:12:53;;;;;;;68.03;43.28;;;;;;;;;;5586719;31;34402;-70
2023/12/06 06:15:56;;;;;;;66.25;43.50;;;;;;;;;;5588457;31;35009;-71
2023/12/06 06:18:58;;;;;;;65.22;42.47;;;;;;;;;;5587921;31;35245;-71
2023/12/06 06:22:01;;;;;;;67.68;43.95;;;;;;;;;;5588449;31;34443;-71
2023/12/06 06:25:04;;;;;;;69.15;45.88;;;;;;;;;;5587849;31;35255;-71
2023/12/06 06:28:06;;;;;;;69.40;44.17;;;;;;;;;;5587907;31;34435;-71
2023/12/06 06:31:09;;;;;;;65.37;43.70;;;;;;;;;;5587973;31;35080;-72
2023/12/06 06:34:12;;;;;;;70.28;44.35;;;;;;;;;;5587067;31;35239;-72
2023/12/06 06:37:15;;;;;;;71.00;44.97;;;;;;;;;;5587669;31;35164;-72
2023/12/06 06:40:18;;;;;;;75.25;47.55;;;;;;;;;;5587678;31;34435;-72
2023/12/06 06:43:20;;;;;;;72.32;46.45;;;;;;;;;;5587743;31;34569;-72
2023/12/06 06:46:23;;;;;;;71.07;46.50;;;;;;;;;;5587534;31;34553;-73
2023/12/06 06:49:26;;;;;;;66.75;44.15;;;;;;;;;;5587302;31;34635;-72
2023/12/06 06:52:29;;;;;;;67.45;46.88;;;;;;;;;;5586846;31;34394;-72
2023/12/06 06:55:32;;;;;;;65.45;44.05;;;;;;;;;;5586886;31;34417;-72
2023/12/06 06:58:35;;;;;;;62.83;43.05;;;;;;;;;;5586620;31;34234;-72
2023/12/06 07:01:37;;;;;;;66.87;44.97;;;;;;;;;;5587454;31;34546;-72
2023/12/06 07:04:41;;;;;;;64.70;44.13;;;;;;;;;;5586844;31;35075;-72
2023/12/06 07:07:44;;;;;;;57.80;40.90;;;;;;;;;;5586136;31;34383;-72
2023/12/06 07:10:48;;;;;;;59.33;40.95;;;;;;;;;;5586852;31;34444;-72
2023/12/06 07:13:50;;;;;;;53.70;39.28;;;;;;;;;;5586897;31;34985;-72
2023/12/06 07:16:54;;;;;;;57.30;39.90;;;;;;;;;;5587167;31;34282;-73
2023/12/06 07:19:57;;;;;;;59.58;42.13;;;;;;;;;;5586313;31;34350;-72
2023/12/06 07:23:01;;;;;;;54.10;40.17;;;;;;;;;;5587332;31;34341;-73
2023/12/06 07:26:05;;;;;;;57.50;40.40;;;;;;;;;;5589168;31;35329;-73
2023/12/06 07:29:08;;;;;;;52.53;38.40;;;;;;;;;;5588838;31;34670;-73
2023/12/06 07:32:11;;;;;;;52.35;37.92;;;;;;;;;;5589339;31;35004;-74
2023/12/06 07:35:14;;;;;;;54.88;38.95;;;;;;;;;;5589145;31;34228;-74
2023/12/06 07:38:17;;;;;;;55.45;38.28;;;;;;;;;;5589153;31;34407;-72
2023/12/06 07:41:19;;;;;;;54.72;38.45;;;;;;;;;;5589092;31;34231;-73
2023/12/06 07:44:22;;;;;;;50.45;37.00;;;;;;;;;;5589105;31;35113;-73
2023/12/06 07:47:25;;;;;;;51.65;37.00;;;;;;;;;;5589099;31;34251;-73
2023/12/06 07:50:30;;;;;;;47.47;34.70;;;;;;;;;;5589048;31;34364;-74
2023/12/06 07:53:32;;;;;;;51.22;36.15;;;;;;;;;;5588587;31;34339;-73
2023/12/06 07:56:35;;;;;;;53.35;38.47;;;;;;;;;;5588165;31;34542;-73
2023/12/06 07:59:38;;;;;;;54.15;39.22;;;;;;;;;;5588869;31;34349;-73
2023/12/06 08:02:42;;;;;;;55.70;38.67;;;;;;;;;;5589201;31;34425;-74
2023/12/06 08:05:45;;;;;;;54.08;39.03;;;;;;;;;;5588757;31;34333;-73
2023/12/06 08:08:50;;;;;;;57.85;40.97;;;;;;;;;;5589466;31;35128;-73
2023/12/06 08:11:53;;;;;;;58.00;40.20;;;;;;;;;;5589217;31;34240;-73
2023/12/06 08:14:56;;;;;;;58.70;40.42;;;;;;;;;;5589071;31;35020;-73
2023/12/06 08:17:58;;;;;;;65.75;41.92;;;;;;;;;;5589492;31;34315;-73
2023/12/06 08:21:04;;;;;;;63.17;40.88;;;;;;;;;;5588287;31;34655;-73
2023/12/06 08:24:07;;;;;;;55.75;39.20;;;;;;;;;;5588903;31;35149;-74
2023/12/06 08:27:09;;;;;;;57.35;39.13;;;;;;;;;;5587867;31;34476;-74
2023/12/06 08:30:12;;;;;;;59.50;40.60;;;;;;;;;;5589117;31;33908;-75
2023/12/06 08:33:15;;;;;;;58.72;38.75;;;;;;;;;;5589007;31;35130;-75
2023/12/06 08:36:18;;;;;;;58.90;38.97;;;;;;;;;;5574643;31;34427;-72
2023/12/06 08:39:20;;;;;;;57.72;39.33;;;;;;;;;;5588542;31;34135;-77
2023/12/06 08:42:23;;;;;;;54.85;39.35;;;;;;;;;;5589053;31;35108;-76
2023/12/06 08:45:26;;;;;;;51.00;36.42;;;;;;;;;;5589093;31;34657;-75
2023/12/06 08:48:29;;;;;;;50.65;35.60;;;;;;;;;;5588464;31;32881;-75
2023/12/06 08:51:32;;;;;;;52.72;36.08;;;;;;;;;;5588463;31;35160;-76
2023/12/06 08:54:35;;;;;;;46.50;32.83;;;;;;;;;;5589032;31;34475;-75
2023/12/06 08:57:37;;;;;;;47.38;34.33;;;;;;;;;;5588592;31;35267;-75
2023/12/06 09:00:43;;;;;;;45.47;32.13;;;;;;;;;;5588206;31;34565;-73
2023/12/06 09:03:46;;;;;;;44.97;31.83;;;;;;;;;;5588252;31;34500;-74
2023/12/06 09:06:49;;;;;;;42.95;30.98;;;;;;;;;;5589031;31;34988;-75
2023/12/06 09:09:52;;;;;;;44.83;32.45;;;;;;;;;;5588434;31;35051;-75
2023/12/06 09:12:57;;;;;;;48.95;34.20;;;;;;;;;;5588420;31;34383;-75
2023/12/06 09:15:59;;;;;;;55.70;37.20;;;;;;;;;;5587790;31;34277;-74
2023/12/06 09:19:03;;;;;;;51.17;36.78;;;;;;;;;;5588409;31;34252;-74
2023/12/06 09:22:06;;;;;;;48.75;34.85;;;;;;;;;;5588418;31;34532;-74
2023/12/06 09:25:09;;;;;;;50.17;35.03;;;;;;;;;;5588645;31;34973;-75
2023/12/06 09:28:12;;;;;;;48.87;33.97;;;;;;;;;;5588181;31;34670;-75
2023/12/06 09:31:16;;;;;;;43.55;31.95;;;;;;;;;;5588358;31;35026;-76
2023/12/06 09:34:20;;;;;;;45.65;32.25;;;;;;;;;;5588344;31;34556;-75
2023/12/06 09:37:38;;;;;;;46.35;34.45;;;;;;;;;;5587527;31;34320;-74
2023/12/06 09:40:41;;;;;;;44.85;32.10;;;;;;;;;;5588347;31;35046;-75
2023/12/06 09:43:44;;;;;;;45.92;32.00;;;;;;;;;;5588549;31;34405;-75
2023/12/06 09:46:48;;;;;;;42.90;31.35;;;;;;;;;;5588015;31;34375;-76
2023/12/06 09:49:53;;;;;;;41.60;29.37;;;;;;;;;;5588095;31;34281;-75
2023/12/06 09:52:55;;;;;;;41.33;30.75;;;;;;;;;;5587552;31;34555;-75
2023/12/06 09:55:59;;;;;;;42.90;29.98;;;;;;;;;;5587676;31;35111;-75
2023/12/06 09:59:02;;;;;;;38.22;29.33;;;;;;;;;;5586793;31;35180;-76
2023/12/06 10:02:04;;;;;;;41.13;29.45;;;;;;;;;;5587808;31;34989;-75
2023/12/06 10:05:08;;;;;;;37.90;28.35;;;;;;;;;;5587980;31;34393;-76
2023/12/06 10:08:13;;;;;;;36.63;27.90;;;;;;;;;;5587290;31;35018;-76
2023/12/06 10:11:17;;;;;;;38.55;28.45;;;;;;;;;;5588124;31;34321;-77
2023/12/06 10:14:20;;;;;;;46.20;30.62;;;;;;;;;;5587637;31;34447;-77
2023/12/06 10:17:23;;;;;;;41.22;29.23;;;;;;;;;;5588304;31;34482;-76
2023/12/06 10:20:27;;;;;;;42.17;30.85;;;;;;;;;;5587035;31;34265;-76
2023/12/06 10:23:30;;;;;;;44.30;31.92;;;;;;;;;;5587403;31;35086;-76
2023/12/06 10:26:33;;;;;;;42.62;29.65;;;;;;;;;;5587460;31;34971;-75
2023/12/06 10:29:37;;;;;;;41.85;31.42;;;;;;;;;;5587085;31;34806;-76
2023/12/06 10:32:41;;;;;;;45.12;31.75;;;;;;;;;;5588088;31;34858;-76
2023/12/06 10:35:45;;;;;;;49.78;34.13;;;;;;;;;;5587531;31;34267;-75
2023/12/06 10:38:49;;;;;;;53.30;36.22;;;;;;;;;;5592043;31;34226;-75
2023/12/06 10:41:53;;;;;;;49.13;35.38;;;;;;;;;;5587469;31;35101;-76
2023/12/06 10:44:57;;;;;;;51.08;36.78;;;;;;;;;;5586750;31;34969;-75
2023/12/06 10:48:03;;;;;;;48.30;35.10;;;;;;;;;;5590344;31;34209;-75
2023/12/06 10:51:07;;;;;;;49.33;34.60;;;;;;;;;;5589659;31;35028;-75
2023/12/06 10:54:11;;;;;;;46.90;34.13;;;;;;;;;;5588714;31;34431;-76
2023/12/06 10:57:17;;;;;;;48.22;34.80;;;;;;;;;;5589712;31;34628;-78
2023/12/06 11:00:21;;;;;;;56.33;33.60;;;;;;;;;;5589619;31;34488;-76
2023/12/06 11:03:24;;;;;;;44.25;32.45;;;;;;;;;;5589980;31;34460;-77
2023/12/06 11:06:27;;;;;;;46.47;32.95;;;;;;;;;;5590723;31;34257;-78
2023/12/06 11:09:53;;;;;;;50.80;34.08;;;;;;;;;;5592899;31;34404;-78
2023/12/06 11:12:57;;;;;;;45.17;32.90;;;;;;;;;;5592895;31;35099;-77
2023/12/06 11:16:19;;;;;;;47.42;32.53;;;;;;;;;;5589508;31;34222;-76
2023/12/06 11:19:23;;;;;;;52.80;36.00;;;;;;;;;;5589792;31;35066;-77
2023/12/06 11:22:25;;;;;;;51.50;32.78;;;;;;;;;;5591001;31;34536;-77
2023/12/06 11:25:29;;;;;;;41.25;30.60;;;;;;;;;;5589909;31;34474;-77
2023/12/06 11:28:39;;;;;;;43.90;31.27;;;;;;;;;;5589553;31;34420;-77
2023/12/06 11:31:43;;;;;;;46.33;31.20;;;;;;;;;;5589297;31;34646;-77
2023/12/06 11:34:55;;;;;;;46.75;32.33;;;;;;;;;;5589767;31;34152;-78
2023/12/06 11:37:58;;;;;;;48.92;34.05;;;;;;;;;;5589579;31;34289;-76
2023/12/06 11:41:01;;;;;;;49.22;34.35;;;;;;;;;;5588934;31;34314;-75
2023/12/06 11:44:14;;;;;;;47.72;32.60;;;;;;;;;;5589364;31;34190;-76
2023/12/06 11:47:16;;;;;;;48.53;34.33;;;;;;;;;;5588134;31;34383;-76
2023/12/06 11:50:20;;;;;;;47.20;32.63;;;;;;;;;;5589526;31;35150;-75
2023/12/06 11:53:24;;;;;;;48.05;33.95;;;;;;;;;;5588178;31;34562;-75
2023/12/06 11:56:28;;;;;;;43.75;31.87;;;;;;;;;;5588899;31;34392;-75
2023/12/06 11:59:32;;;;;;;44.92;32.78;;;;;;;;;;5589131;31;34453;-74
2023/12/06 12:02:35;;;;;;;46.58;32.70;;;;;;;;;;5588861;31;35227;-75
2023/12/06 12:05:38;;;;;;;47.88;34.20;;;;;;;;;;5588994;31;35116;-75
2023/12/06 12:08:41;;;;;;;50.03;34.67;;;;;;;;;;5588439;31;34281;-75
2023/12/06 12:11:45;;;;;;;51.20;35.97;;;;;;;;;;5588901;31;34419;-75
2023/12/06 12:14:47;;;;;;;54.67;37.40;;;;;;;;;;5577556;31;342052;-75
2023/12/06 12:17:51;;;;;;;57.85;38.85;;;;;;;;;;5589007;31;34580;-75
2023/12/06 12:20:55;;;;;;;59.35;37.95;;;;;;;;;;5588971;31;34408;-75
2023/12/06 12:24:00;;;;;;;56.53;38.38;;;;;;;;;;5589542;31;35030;-76
2023/12/06 12:27:04;;;;;;;57.92;41.03;;;;;;;;;;5589061;31;33082;-76
2023/12/06 12:30:10;;;;;;;65.68;41.30;;;;;;;;;;5589127;31;35001;-76
2023/12/06 12:33:13;;;;;;;60.58;40.80;;;;;;;;;;5588757;31;34636;-76
2023/12/06 12:36:16;;;;;;;60.65;41.35;;;;;;;;;;5589115;31;35074;-76
2023/12/06 12:39:19;;;;;;;66.62;42.85;;;;;;;;;;5589086;31;34315;-76
2023/12/06 12:42:22;;;;;;;62.00;42.42;;;;;;;;;;5588966;31;34992;-76
2023/12/06 12:45:26;;;;;;;64.05;43.90;;;;;;;;;;5575399;31;34147;-75
2023/12/06 12:48:29;;;;;;;70.62;45.92;;;;;;;;;;5587997;31;34375;-76
2023/12/06 12:51:33;;;;;;;65.78;42.33;;;;;;;;;;5588835;31;34896;-75
2023/12/06 12:54:40;;;;;;;59.10;40.78;;;;;;;;;;5588756;31;34389;-76
2023/12/06 12:57:44;;;;;;;53.78;38.67;;;;;;;;;;5588727;31;34423;-76
2023/12/06 13:00:50;;;;;;;55.30;37.70;;;;;;;;;;5588687;31;34505;-75
2023/12/06 13:03:54;;;;;;;52.45;36.28;;;;;;;;;;5588469;31;35265;-74
2023/12/06 13:06:58;;;;;;;49.63;35.72;;;;;;;;;;5587996;31;35085;-75
2023/12/06 13:10:05;;;;;;;50.42;35.20;;;;;;;;;;5587988;31;34352;-72
2023/12/06 13:13:08;;;;;;;47.65;33.17;;;;;;;;;;5588919;31;34381;-75
2023/12/06 13:16:10;;;;;;;48.85;34.65;;;;;;;;;;5588456;31;34267;-76
2023/12/06 13:19:13;;;;;;;50.75;35.25;;;;;;;;;;5588458;31;34422;-76
2023/12/06 13:22:16;;;;;;;51.53;34.38;;;;;;;;;;5587611;31;35127;-75
2023/12/06 13:25:24;;;;;;;53.08;35.72;;;;;;;;;;5588382;31;34218;-75
2023/12/06 13:28:26;;;;;;;54.47;35.25;;;;;;;;;;5588429;31;34561;-76
2023/12/06 13:31:29;;;;;;;48.92;33.30;;;;;;;;;;5587751;31;34428;-75
2023/12/06 13:34:31;;;;;;;49.70;34.03;;;;;;;;;;5588101;31;34612;-75
2023/12/06 13:37:34;;;;;;;46.90;32.40;;;;;;;;;;5588206;31;34728;-75
2023/12/06 13:40:36;;;;;;;48.58;33.63;;;;;;;;;;5588355;31;35007;-76
2023/12/06 13:43:40;;;;;;;46.42;32.28;;;;;;;;;;5588113;31;35061;-76
2023/12/06 13:46:43;;;;;;;47.25;32.20;;;;;;;;;;5588198;31;34346;-76
2023/12/06 13:49:45;;;;;;;47.53;30.73;;;;;;;;;;5588309;31;34326;-77
2023/12/06 13:52:48;;;;;;;46.40;31.67;;;;;;;;;;5587605;31;34424;-77
2023/12/06 13:55:51;;;;;;;45.03;29.92;;;;;;;;;;5588197;31;34347;-76
2023/12/06 13:58:53;;;;;;;43.60;30.98;;;;;;;;;;5588225;31;34276;-75
2023/12/06 14:01:56;;;;;;;44.20;30.10;;;;;;;;;;5587215;31;34378;-77
2023/12/06 14:04:59;;;;;;;40.58;28.25;;;;;;;;;;5588043;31;34744;-75
2023/12/06 14:08:04;;;;;;;48.40;31.17;;;;;;;;;;5587318;31;34985;-77
2023/12/06 14:11:06;;;;;;;42.83;29.65;;;;;;;;;;5588082;31;34257;-75
2023/12/06 14:14:09;;;;;;;43.97;29.52;;;;;;;;;;5588098;31;34381;-76
2023/12/06 14:17:12;;;;;;;46.08;29.75;;;;;;;;;;5588114;31;33926;-76
2023/12/06 14:20:15;;;;;;;48.30;30.17;;;;;;;;;;5588397;31;34296;-76
2023/12/06 14:23:20;;;;;;;43.08;29.73;;;;;;;;;;5588048;31;33916;-76
2023/12/06 14:26:23;;;;;;;42.60;28.90;;;;;;;;;;5587058;31;34306;-78
2023/12/06 14:29:25;;;;;;;42.25;28.35;;;;;;;;;;5587807;31;34539;-77
2023/12/06 14:32:28;;;;;;;41.10;27.17;;;;;;;;;;5586235;31;35106;-77
2023/12/06 14:35:32;;;;;;;40.75;24.60;;;;;;;;;;5586706;31;34589;-77
2023/12/06 14:38:34;;;;;;;36.65;24.58;;;;;;;;;;5586820;31;35132;-77
2023/12/06 14:41:38;;;;;;;37.60;26.33;;;;;;;;;;5587021;31;34591;-76
2023/12/06 14:44:40;;;;;;;36.35;24.15;;;;;;;;;;5587395;31;34450;-77
2023/12/06 14:47:44;;;;;;;35.33;24.23;;;;;;;;;;5587369;31;34475;-77
2023/12/06 14:50:46;;;;;;;33.22;22.70;;;;;;;;;;5587011;31;35040;-77
2023/12/06 14:53:50;;;;;;;44.65;25.58;;;;;;;;;;5585977;31;34527;-76
2023/12/06 14:56:53;;;;;;;33.90;23.08;;;;;;;;;;5587020;31;35114;-77
2023/12/06 14:59:56;;;;;;;37.40;24.10;;;;;;;;;;5585790;31;34522;-76
2023/12/06 15:02:59;;;;;;;35.60;24.30;;;;;;;;;;5586750;31;35090;-76
2023/12/06 15:06:01;;;;;;;38.33;25.30;;;;;;;;;;5587114;31;35311;-75
2023/12/06 15:09:04;;;;;;;40.15;26.77;;;;;;;;;;5586196;31;34574;-75
2023/12/06 15:12:07;;;;;;;35.75;24.90;;;;;;;;;;5585755;31;34384;-78
2023/12/06 15:15:09;;;;;;;37.85;26.23;;;;;;;;;;5586367;31;34380;-78
2023/12/06 15:18:12;;;;;;;35.25;24.73;;;;;;;;;;5586642;31;34574;-77
2023/12/06 15:21:15;;;;;;;32.15;22.60;;;;;;;;;;5586463;31;34151;-78
2023/12/06 15:24:17;;;;;;;33.70;24.67;;;;;;;;;;5586407;31;34539;-77
2023/12/06 15:27:19;;;;;;;36.22;25.75;;;;;;;;;;5586130;31;35287;-77
2023/12/06 15:30:22;;;;;;;35.63;25.73;;;;;;;;;;5586241;31;34361;-77
2023/12/06 15:33:25;;;;;;;36.97;25.25;;;;;;;;;;5585722;31;35142;-77
2023/12/06 15:36:28;;;;;;;34.92;24.67;;;;;;;;;;5586140;31;35329;-75
2023/12/06 15:39:31;;;;;;;35.38;25.10;;;;;;;;;;5586080;31;34397;-77
2023/12/06 15:42:34;;;;;;;35.78;24.70;;;;;;;;;;5586337;31;34431;-75
2023/12/06 15:45:36;;;;;;;35.38;25.08;;;;;;;;;;5588387;31;34560;-76
2023/12/06 15:48:39;;;;;;;34.53;25.05;;;;;;;;;;5589001;31;34472;-76
2023/12/06 15:51:42;;;;;;;36.00;25.83;;;;;;;;;;5589455;31;34185;-75
2023/12/06 15:54:57;;;;;;;38.90;25.40;;;;;;;;;;5589251;31;34993;-75
2023/12/06 15:58:00;;;;;;;36.83;25.52;;;;;;;;;;5588507;31;35071;-76
2023/12/06 16:01:05;;;;;;;36.20;25.08;;;;;;;;;;5588978;31;34381;-75
2023/12/06 16:04:08;;;;;;;32.58;24.05;;;;;;;;;;5589524;31;35030;-75
2023/12/06 16:07:11;;;;;;;33.63;24.70;;;;;;;;;;5589170;31;34676;-75
2023/12/06 16:10:14;;;;;;;33.83;24.98;;;;;;;;;;5588999;31;35071;-75
2023/12/06 16:13:18;;;;;;;36.53;23.85;;;;;;;;;;5588955;31;35021;-75
2023/12/06 16:16:22;;;;;;;32.47;22.70;;;;;;;;;;5589028;31;35058;-75
2023/12/06 16:19:27;;;;;;;31.98;23.52;;;;;;;;;;5589137;31;35024;-76
2023/12/06 16:22:30;;;;;;;34.15;23.87;;;;;;;;;;5588940;31;35076;-76
2023/12/06 16:25:32;;;;;;;31.35;23.27;;;;;;;;;;5588997;31;34797;-76
2023/12/06 16:28:34;;;;;;;34.40;24.60;;;;;;;;;;5588911;31;35029;-76
2023/12/06 16:31:37;;;;;;;34.40;25.15;;;;;;;;;;5589013;31;34376;-77
2023/12/06 16:34:39;;;;;;;38.05;25.27;;;;;;;;;;5589212;31;34950;-77
2023/12/06 16:37:42;;;;;;;35.58;24.77;;;;;;;;;;5588699;31;34679;-77
2023/12/06 16:40:44;;;;;;;34.30;25.30;;;;;;;;;;5588866;31;34420;-77
2023/12/06 16:43:47;;;;;;;33.00;23.92;;;;;;;;;;5589107;31;34216;-76
2023/12/06 16:46:49;;;;;;;35.63;25.05;;;;;;;;;;5588937;31;35099;-76
2023/12/06 16:49:52;;;;;;;34.80;24.85;;;;;;;;;;5588870;31;34543;-76
2023/12/06 16:52:54;;;;;;;33.97;23.20;;;;;;;;;;5588961;31;34281;-75
2023/12/06 16:55:57;;;;;;;34.65;23.33;;;;;;;;;;5587633;31;34272;-75
2023/12/06 16:59:00;;;;;;;31.45;21.98;;;;;;;;;;5589144;31;34378;-76
2023/12/06 17:02:03;;;;;;;30.83;21.55;;;;;;;;;;5588819;31;35053;-74
2023/12/06 17:05:09;;;;;;;29.67;21.20;;;;;;;;;;5588989;31;35081;-74
2023/12/06 17:08:11;;;;;;;30.37;20.92;;;;;;;;;;5588447;31;34476;-74
2023/12/06 17:11:13;;;;;;;31.50;21.98;;;;;;;;;;5588496;31;34473;-73
2023/12/06 17:14:17;;;;;;;29.42;21.15;;;;;;;;;;5587841;31;34356;-74
2023/12/06 17:17:20;;;;;;;30.85;21.30;;;;;;;;;;5588624;31;34407;-74
2023/12/06 17:20:23;;;;;;;28.17;20.70;;;;;;;;;;5588339;31;34299;-75
2023/12/06 17:23:27;;;;;;;31.08;21.10;;;;;;;;;;5588485;31;34791;-74
2023/12/06 17:26:31;;;;;;;29.85;20.05;;;;;;;;;;5588065;31;34323;-73
2023/12/06 17:29:48;;;;;;;30.52;21.77;;;;;;;;;;5588704;31;34124;-73
2023/12/06 17:32:53;;;;;;;31.33;21.17;;;;;;;;;;5588849;31;34278;-74
2023/12/06 17:35:56;;;;;;;31.98;22.08;;;;;;;;;;5588401;31;34266;-74
2023/12/06 17:38:58;;;;;;;34.85;22.50;;;;;;;;;;5588519;31;34674;-74
2023/12/06 17:42:02;;;;;;;32.13;23.58;;;;;;;;;;5588131;31;34559;-73
2023/12/06 17:45:04;;;;;;;31.85;22.30;;;;;;;;;;5588260;31;34354;-73